EWG94PJ EDDS-EPKK
Flight info
| Callsign | EWG94PJ |
|---|---|
| Flight time | N/A |
| Altitude | 23000 |
| Route | DKB4H DKB N869 AMOSA/N0432F350 N869 ANELA Z715 KULOK L984 OKG DCT ETUDA DCT PADKA |
| Aircraft | A21N/M-SDE2E3FGHIRWXY/LB1 |
Departure
| Time | 2026-05-05 08:27 |
|---|---|
| Airport | Stuttgart Airport (EDDS) |
Arrival
| Time | N/A |
|---|---|
| Airport | Kraków John Paul II International Airport (EPKK) |
| Time | Latitude | Longitude | Altitude | Speed | Heading |
|---|---|---|---|---|---|
| 2026-05-05 07:53 | 48.68784 | 9.19618 | 1311 ft | 0 kts | 164° |
| 2026-05-05 08:20 | 48.68784 | 9.19619 | 1311 ft | 0 kts | 164° |
| 2026-05-05 08:21 | 48.68773 | 9.19623 | 1310 ft | 3 kts | 164° |
| 2026-05-05 08:21 | 48.68750 | 9.19633 | 1309 ft | 4 kts | 164° |
| 2026-05-05 08:21 | 48.68728 | 9.19665 | 1307 ft | 5 kts | 105° |
| 2026-05-05 08:21 | 48.68734 | 9.19727 | 1305 ft | 7 kts | 74° |
| 2026-05-05 08:22 | 48.68749 | 9.19802 | 1303 ft | 8 kts | 74° |
| 2026-05-05 08:22 | 48.68764 | 9.19887 | 1301 ft | 9 kts | 82° |
| 2026-05-05 08:22 | 48.68730 | 9.19966 | 1297 ft | 10 kts | 158° |
| 2026-05-05 08:22 | 48.68674 | 9.19990 | 1293 ft | 4 kts | 164° |
| 2026-05-05 08:23 | 48.68672 | 9.19991 | 1293 ft | 0 kts | 163° |
| 2026-05-05 08:24 | 48.68671 | 9.19992 | 1293 ft | 1 kts | 163° |
| 2026-05-05 08:24 | 48.68666 | 9.19994 | 1293 ft | 2 kts | 163° |
| 2026-05-05 08:25 | 48.68656 | 9.19999 | 1292 ft | 2 kts | 163° |
| 2026-05-05 08:25 | 48.68638 | 9.20007 | 1291 ft | 4 kts | 163° |
| 2026-05-05 08:25 | 48.68599 | 9.20030 | 1289 ft | 8 kts | 139° |
| 2026-05-05 08:25 | 48.68594 | 9.20117 | 1288 ft | 9 kts | 77° |
| 2026-05-05 08:26 | 48.68595 | 9.20123 | 1287 ft | 1 kts | 74° |
| 2026-05-05 08:26 | 48.68634 | 9.20330 | 1283 ft | 53 kts | 74° |
| 2026-05-05 08:26 | 48.68802 | 9.21207 | 1265 ft | 118 kts | 75° |
| 2026-05-05 08:26 | 48.69073 | 9.22638 | 1230 ft | 162 kts | 74° |
| 2026-05-05 08:27 | 48.69384 | 9.24310 | 1673 ft | 163 kts | 74° |
| 2026-05-05 08:27 | 48.69665 | 9.26010 | 2130 ft | 170 kts | 75° |
| 2026-05-05 08:27 | 48.69988 | 9.27804 | 2573 ft | 182 kts | 73° |
| 2026-05-05 08:27 | 48.70352 | 9.29719 | 2983 ft | 198 kts | 73° |
| 2026-05-05 08:28 | 48.70752 | 9.31795 | 3543 ft | 216 kts | 73° |
| 2026-05-05 08:28 | 48.71197 | 9.34096 | 3996 ft | 241 kts | 74° |
| 2026-05-05 08:28 | 48.71686 | 9.36636 | 4485 ft | 260 kts | 74° |
| 2026-05-05 08:28 | 48.72202 | 9.39318 | 5228 ft | 268 kts | 75° |
| 2026-05-05 08:29 | 48.72701 | 9.41911 | 6039 ft | 272 kts | 75° |
| 2026-05-05 08:29 | 48.73233 | 9.44689 | 6858 ft | 276 kts | 75° |
| 2026-05-05 08:29 | 48.73770 | 9.47504 | 7709 ft | 280 kts | 74° |
| 2026-05-05 08:30 | 48.75767 | 9.52642 | 9438 ft | 290 kts | 51° |
| 2026-05-05 08:30 | 48.77089 | 9.55000 | 10149 ft | 300 kts | 51° |
| 2026-05-05 08:30 | 48.78415 | 9.57373 | 10507 ft | 321 kts | 51° |
| 2026-05-05 08:30 | 48.79895 | 9.60056 | 10848 ft | 342 kts | 51° |
| 2026-05-05 08:31 | 48.81443 | 9.62877 | 11466 ft | 351 kts | 51° |
| 2026-05-05 08:31 | 48.83016 | 9.65755 | 12216 ft | 357 kts | 51° |
| 2026-05-05 08:31 | 48.84607 | 9.68676 | 13000 ft | 362 kts | 52° |
| 2026-05-05 08:31 | 48.86118 | 9.71466 | 13689 ft | 366 kts | 52° |
| 2026-05-05 08:32 | 48.87755 | 9.74490 | 14367 ft | 371 kts | 52° |
| 2026-05-05 08:32 | 48.89408 | 9.77538 | 15028 ft | 375 kts | 52° |
| 2026-05-05 08:32 | 48.91062 | 9.80585 | 15696 ft | 379 kts | 52° |
| 2026-05-05 08:32 | 48.92746 | 9.83691 | 16346 ft | 383 kts | 52° |
| 2026-05-05 08:33 | 48.94033 | 9.86072 | 16833 ft | 387 kts | 52° |
| 2026-05-05 08:33 | 48.94868 | 9.87619 | 17153 ft | 389 kts | 52° |
| 2026-05-05 08:33 | 48.95279 | 9.88380 | 17307 ft | 390 kts | 52° |
| 2026-05-05 08:34 | 48.96799 | 9.91203 | 17871 ft | 394 kts | 53° |
| 2026-05-05 08:34 | 48.97739 | 9.92954 | 18201 ft | 396 kts | 53° |
| 2026-05-05 08:34 | 48.98465 | 9.94305 | 18421 ft | 398 kts | 53° |
| 2026-05-05 08:34 | 48.99177 | 9.95628 | 18648 ft | 400 kts | 52° |
| 2026-05-05 08:36 | 48.99326 | 9.95904 | 18691 ft | 400 kts | 52° |
| 2026-05-05 08:37 | 49.01011 | 9.99043 | 19221 ft | 403 kts | 52° |
| 2026-05-05 08:37 | 49.01229 | 9.99448 | 19291 ft | 404 kts | 52° |
| 2026-05-05 08:37 | 49.02242 | 10.01335 | 19599 ft | 406 kts | 52° |
| 2026-05-05 08:37 | 49.03961 | 10.04537 | 20104 ft | 409 kts | 52° |
| 2026-05-05 08:38 | 49.04363 | 10.05286 | 20235 ft | 410 kts | 52° |
| 2026-05-05 08:38 | 49.06175 | 10.08666 | 20765 ft | 413 kts | 53° |
| 2026-05-05 08:38 | 49.07869 | 10.12213 | 21292 ft | 416 kts | 57° |
| 2026-05-05 08:38 | 49.09511 | 10.15899 | 21834 ft | 420 kts | 57° |
| 2026-05-05 08:39 | 49.11156 | 10.19604 | 22358 ft | 423 kts | 57° |